Starlake, Wisconsin
Current Conditions -  °F | °C
As of 5:55 AM on Friday 19 Dec 2014 (Local Time) from KEGV Reporting Station
Moderate Snow Moderate Snow  
Wind Chill:   Ceiling: 500
Heat Index:   Visibility: 0.75mi
Dew Point: -3°   Wind: 0mph
Humidity: 81%   Direction: NA
Pressure: 30.23"   Gusts: NA
Location:  46.0405°N, 89.4656°W
Report Text: KEGV 191155Z AUTO 00000KT 3/4SM SN VV005 M17/M19 A3023 RMK AO2 70005 T11661192 11157 21174
Loading
Personal Weather Stations






























Interactive Weather Map New forecast layout! Learn more

10-Day Weather Forecast

Advertisements
Track Severe Weather on mobile